Time;durP1;ratioP1;P1;durP2;ratioP2;P2;SDS_P1;SDS_P2;PMS_P1;PMS_P2;Temp;Humidity;BMP_temperature;BMP_pressure;BME280_temperature;BME280_humidity;BME280_pressure;Samples;Min_cycle;Max_cycle;Signal;HPM_P1;HPM_P2
2022/01/10 00:02:04;;;;;;;12.80;6.10;;;;;;;5.92;81.26;100390.16;5057594;28;20181;-63
2022/01/10 00:04:30;;;;;;;19.30;5.83;;;;;;;5.83;81.50;100389.94;5063564;28;20173;-62
2022/01/10 00:06:55;;;;;;;9.07;5.60;;;;;;;5.62;82.37;100398.94;5078115;28;20453;-64
2022/01/10 00:09:20;;;;;;;11.47;5.70;;;;;;;5.81;81.79;100401.97;5077808;28;20183;-64
2022/01/10 00:11:46;;;;;;;16.43;6.53;;;;;;;5.97;80.68;100401.50;5078307;28;20173;-63
2022/01/10 00:14:11;;;;;;;13.20;5.93;;;;;;;6.09;80.68;100405.22;5065983;28;20236;-64
2022/01/10 00:16:36;;;;;;;14.10;5.60;;;;;;;5.80;81.40;100410.56;5061571;28;20174;-66
2022/01/10 00:19:02;;;;;;;9.60;5.40;;;;;;;5.92;80.79;100416.03;5080334;28;20180;-63
2022/01/10 00:21:27;;;;;;;8.07;5.60;;;;;;;5.83;81.60;100410.63;5081806;28;20430;-64
2022/01/10 00:23:53;;;;;;;11.13;5.90;;;;;;;5.81;80.97;100414.91;5080873;28;20168;-65
2022/01/10 00:26:18;;;;;;;7.17;5.23;;;;;;;5.48;82.37;100428.75;5071577;28;20189;-63
2022/01/10 00:28:43;;;;;;;12.00;5.97;;;;;;;5.74;81.63;100427.69;5061152;28;20507;-63
2022/01/10 00:31:09;;;;;;;12.90;5.73;;;;;;;9.42;78.69;100417.41;5061023;28;20166;-59
2022/01/10 00:33:35;;;;;;;11.40;5.77;;;;;;;11.11;67.11;100427.09;5060828;28;20258;-60
2022/01/10 00:36:00;;;;;;;7.47;4.97;;;;;;;11.35;66.58;100418.44;5061419;28;20523;-60
2022/01/10 00:38:25;;;;;;;10.60;5.33;;;;;;;8.64;68.95;100428.69;5060996;28;20420;-64
2022/01/10 00:40:51;;;;;;;9.87;4.57;;;;;;;7.30;73.61;100445.66;5060683;28;20182;-64
2022/01/10 00:43:19;;;;;;;14.63;5.13;;;;;;;6.70;75.49;100454.88;5060988;28;20434;-65
2022/01/10 00:45:45;;;;;;;7.53;4.90;;;;;;;6.44;77.12;100457.78;5060698;28;20611;-65
2022/01/10 00:48:10;;;;;;;11.60;5.97;;;;;;;5.89;79.20;100468.56;5060616;28;20477;-65
2022/01/10 00:50:36;;;;;;;11.23;5.13;;;;;;;5.89;79.33;100467.72;5061153;28;20189;-64
2022/01/10 00:53:02;;;;;;;9.23;4.73;;;;;;;6.05;80.08;100475.03;5060349;28;20165;-63
2022/01/10 00:55:29;;;;;;;11.70;5.40;;;;;;;5.82;80.85;100470.97;5060368;28;20218;-65
2022/01/10 00:57:54;;;;;;;10.47;5.20;;;;;;;5.91;80.20;100478.94;5060929;28;20158;-64
2022/01/10 01:00:20;;;;;;;12.07;5.80;;;;;;;5.80;80.25;100481.28;5059848;28;20420;-63
2022/01/10 01:02:45;;;;;;;10.90;5.47;;;;;;;5.88;80.44;100495.28;5060162;28;20227;-64
2022/01/10 01:05:12;;;;;;;11.40;6.07;;;;;;;5.72;80.50;100496.63;5060794;28;20170;-63
2022/01/10 01:07:38;;;;;;;8.50;5.70;;;;;;;5.88;79.68;100497.00;5060218;28;20203;-64
2022/01/10 01:13:05;;;;;;;8.00;5.50;;;;;;;5.70;81.03;100513.81;5060090;28;20415;-63
2022/01/10 01:15:33;;;;;;;12.43;5.93;;;;;;;5.61;81.39;100513.56;5060158;28;20820;-64
2022/01/10 01:20:43;;;;;;;10.17;5.93;;;;;;;5.67;81.43;100531.84;5068371;28;20420;-65
2022/01/10 01:26:02;;;;;;;13.37;6.80;;;;;;;5.59;81.93;100540.22;5062622;28;20430;-65
2022/01/10 01:28:28;;;;;;;13.90;8.13;;;;;;;5.71;81.02;100545.69;5060101;28;20499;-64
2022/01/10 01:30:53;;;;;;;9.40;6.70;;;;;;;6.14;79.86;100556.31;5059270;28;20454;-64
2022/01/10 01:33:19;;;;;;;8.37;6.23;;;;;;;6.10;79.94;100564.84;5059950;28;20426;-64
2022/01/10 01:35:44;;;;;;;14.03;7.27;;;;;;;5.66;80.66;100574.03;5060015;28;20173;-64
2022/01/10 01:38:10;;;;;;;12.90;6.60;;;;;;;6.17;79.33;100582.25;5059913;28;20162;-64
2022/01/10 01:40:41;;;;;;;11.23;7.53;;;;;;;6.45;78.65;100593.31;5060207;28;20431;-64
2022/01/10 01:43:07;;;;;;;16.10;7.30;;;;;;;6.27;79.19;100594.63;5059724;28;20177;-64
2022/01/10 01:45:40;;;;;;;11.20;6.70;;;;;;;6.70;77.47;100598.22;5059582;28;20412;-64
2022/01/10 01:48:06;;;;;;;15.73;7.17;;;;;;;6.70;76.68;100600.81;5059494;28;20166;-64
2022/01/10 01:50:31;;;;;;;13.23;6.90;;;;;;;7.10;75.44;100610.34;5059398;28;20825;-64
2022/01/10 01:52:56;;;;;;;12.23;7.53;;;;;;;6.83;75.57;100616.66;5059847;28;20189;-64
2022/01/10 01:55:22;;;;;;;12.20;6.90;;;;;;;6.93;76.35;100609.94;5059037;28;20669;-64
2022/01/10 01:57:47;;;;;;;13.57;7.77;;;;;;;6.71;76.22;100615.53;5059234;28;20181;-64
2022/01/10 02:00:13;;;;;;;10.33;7.03;;;;;;;6.61;77.35;100628.22;5059755;28;20244;-64
2022/01/10 02:02:38;;;;;;;11.33;7.60;;;;;;;6.73;76.25;100634.56;5041853;28;20203;-64
2022/01/10 02:05:04;;;;;;;10.00;7.40;;;;;;;6.89;76.33;100629.75;5059225;28;20185;-64
2022/01/10 02:07:29;;;;;;;12.00;7.60;;;;;;;6.99;76.07;100629.09;5060103;28;20528;-64
2022/01/10 02:09:54;;;;;;;12.83;7.40;;;;;;;6.95;75.82;100640.25;5058982;28;20189;-64
2022/01/10 02:12:19;;;;;;;11.23;7.87;;;;;;;6.72;76.57;100647.47;5058300;28;20169;-64
2022/01/10 02:14:47;;;;;;;11.30;7.90;;;;;;;6.91;76.18;100646.19;5059278;28;20182;-65
2022/01/10 02:17:14;;;;;;;13.87;9.20;;;;;;;6.68;77.19;100654.28;5058884;28;20444;-64
2022/01/10 02:19:39;;;;;;;20.67;9.77;;;;;;;6.44;77.52;100661.47;5058831;28;20400;-64
2022/01/10 02:22:04;;;;;;;14.60;9.50;;;;;;;6.97;76.16;100655.81;5059418;28;20430;-65
2022/01/10 02:24:29;;;;;;;11.23;8.50;;;;;;;6.64;77.14;100667.16;5058774;28;20170;-64
2022/01/10 02:26:55;;;;;;;15.67;9.27;;;;;;;6.66;76.34;100674.13;5058780;28;20173;-65
2022/01/10 02:29:20;;;;;;;15.63;9.93;;;;;;;6.70;77.93;100673.34;5058618;28;20219;-64
2022/01/10 02:31:46;;;;;;;13.03;9.13;;;;;;;6.79;76.75;100677.00;5058753;28;20231;-64
2022/01/10 02:34:16;;;;;;;16.70;11.10;;;;;;;6.42;77.91;100679.56;5058445;28;20263;-64
2022/01/10 02:36:41;;;;;;;16.57;9.20;;;;;;;6.46;77.25;100696.94;5057689;28;20161;-65
2022/01/10 02:39:09;;;;;;;17.37;10.00;;;;;;;6.53;77.28;100695.38;5058798;28;20523;-64
2022/01/10 02:41:42;;;;;;;10.47;8.70;;;;;;;6.94;76.15;100697.22;5058668;28;20169;-64
2022/01/10 02:44:10;;;;;;;15.90;9.30;;;;;;;7.02;75.30;100699.19;5058301;28;20416;-65
2022/01/10 02:46:37;;;;;;;14.30;9.00;;;;;;;6.90;75.97;100704.03;5058524;28;20416;-63
2022/01/10 02:49:32;;;;;;;13.10;8.77;;;;;;;6.66;76.63;100712.97;5059004;28;20408;-64
2022/01/10 02:51:58;;;;;;;13.00;9.57;;;;;;;6.64;77.62;100719.81;5049532;28;20403;-65
2022/01/10 02:54:24;;;;;;;14.27;8.97;;;;;;;6.89;76.12;100720.47;5058226;28;20448;-64
2022/01/10 02:56:54;;;;;;;16.50;9.20;;;;;;;6.40;77.85;100730.44;5058332;28;20260;-64
2022/01/10 02:59:20;;;;;;;13.60;9.50;;;;;;;6.80;76.85;100728.00;5058431;28;20408;-64
2022/01/10 03:01:46;;;;;;;15.50;11.43;;;;;;;6.90;76.83;100738.63;5058558;28;20382;-63
2022/01/10 03:04:11;;;;;;;12.87;9.07;;;;;;;6.61;77.58;100744.78;5058235;28;20426;-64
2022/01/10 03:06:37;;;;;;;16.67;9.10;;;;;;;6.87;75.84;100737.66;5058349;28;20176;-64
2022/01/10 03:09:05;;;;;;;15.10;8.70;;;;;;;6.98;75.92;100744.00;5058787;28;20188;-63
2022/01/10 03:11:37;;;;;;;14.53;8.03;;;;;;;6.83;76.33;100759.16;5058193;28;20432;-63
2022/01/10 03:14:03;;;;;;;11.20;7.93;;;;;;;7.00;76.14;100757.00;5058084;28;20872;-63
2022/01/10 03:16:28;;;;;;;22.83;8.90;;;;;;;7.22;75.32;100763.56;5058811;28;20400;-65
2022/01/10 03:18:54;;;;;;;13.83;8.70;;;;;;;7.30;74.89;100772.41;5057338;28;20516;-64
2022/01/10 03:21:21;;;;;;;15.80;8.73;;;;;;;7.05;75.11;100771.81;5058240;28;20165;-65
2022/01/10 03:23:51;;;;;;;10.57;8.60;;;;;;;7.21;75.38;100779.94;5058295;28;20181;-65
2022/01/10 03:26:17;;;;;;;14.00;8.90;;;;;;;7.12;75.42;100778.03;5057880;28;20412;-64
2022/01/10 03:28:43;;;;;;;15.20;9.17;;;;;;;7.00;75.99;100791.56;5058005;28;20439;-64
2022/01/10 03:31:08;;;;;;;13.13;8.53;;;;;;;6.88;76.22;100799.91;5058403;28;20404;-64
2022/01/10 03:33:33;;;;;;;16.50;8.37;;;;;;;7.26;75.63;100799.09;5057960;28;20280;-64
2022/01/10 03:35:59;;;;;;;14.40;8.30;;;;;;;7.23;75.11;100801.63;5058138;28;20174;-65
2022/01/10 03:38:24;;;;;;;15.20;8.63;;;;;;;6.90;75.95;100810.28;5058403;28;20169;-63
2022/01/10 03:40:49;;;;;;;12.03;9.23;;;;;;;6.89;76.18;100808.56;5058034;28;20268;-64
2022/01/10 03:43:15;;;;;;;13.80;8.10;;;;;;;6.95;76.26;100813.03;5057800;28;20265;-65
2022/01/10 03:45:40;;;;;;;14.20;8.73;;;;;;;7.09;75.92;100814.25;5058104;28;20531;-65
2022/01/10 03:48:06;;;;;;;13.53;8.13;;;;;;;7.10;75.92;100823.78;5061120;28;20536;-64
2022/01/10 03:50:31;;;;;;;12.27;8.07;;;;;;;6.88;76.30;100820.63;5062566;28;20178;-64
2022/01/10 03:52:56;;;;;;;11.20;8.30;;;;;;;6.89;76.34;100818.94;5066205;28;20243;-63
2022/01/10 03:55:21;;;;;;;12.60;8.47;;;;;;;6.95;77.01;100826.84;5061370;28;20588;-63
2022/01/10 03:57:47;;;;;;;13.30;8.20;;;;;;;6.96;76.37;100831.19;5061686;28;20174;-64
2022/01/10 04:00:13;;;;;;;15.33;9.83;;;;;;;6.83;77.00;100839.50;5062088;28;20161;-64
2022/01/10 04:02:40;;;;;;;14.20;8.90;;;;;;;7.07;76.03;100842.72;5061377;28;20173;-64
2022/01/10 04:05:05;;;;;;;13.17;8.70;;;;;;;7.06;75.71;100850.44;5061607;28;20503;-63
2022/01/10 04:07:31;;;;;;;19.03;9.47;;;;;;;6.96;76.46;100859.72;5061811;28;20419;-64
2022/01/10 04:09:56;;;;;;;15.70;8.80;;;;;;;7.41;75.21;100861.72;5061368;28;20243;-65
2022/01/10 04:12:21;;;;;;;14.30;9.20;;;;;;;6.93;76.15;100867.41;5061198;28;20170;-64
2022/01/10 04:14:47;;;;;;;16.33;8.80;;;;;;;6.72;77.27;100868.59;5061656;28;20481;-64
2022/01/10 04:17:13;;;;;;;17.17;10.00;;;;;;;6.61;77.74;100870.00;5061288;28;20539;-64
2022/01/10 04:19:38;;;;;;;26.33;11.43;;;;;;;6.42;77.54;100885.88;5061304;28;20184;-65
2022/01/10 04:22:04;;;;;;;24.27;13.50;;;;;;;6.52;78.02;100893.94;5061842;28;20170;-67
2022/01/10 04:24:29;;;;;;;24.10;12.90;;;;;;;6.94;76.82;100895.09;5068552;28;20174;-68
2022/01/10 04:26:55;;;;;;;27.07;12.70;;;;;;;6.50;77.13;100910.28;5068705;28;20173;-64
2022/01/10 04:29:20;;;;;;;29.27;13.73;;;;;;;6.78;76.31;100914.53;5069717;28;20173;-64
2022/01/10 04:31:46;;;;;;;24.10;13.17;;;;;;;6.60;76.29;100919.19;5062035;28;20170;-64
2022/01/10 04:34:12;;;;;;;22.63;13.23;;;;;;;6.56;76.75;100924.28;5060853;28;20255;-63
2022/01/10 04:36:37;;;;;;;22.03;12.00;;;;;;;6.33;76.62;100935.66;5061664;28;20161;-64
2022/01/10 04:39:03;;;;;;;24.87;12.83;;;;;;;6.09;76.90;100943.53;5061375;28;20421;-64
2022/01/10 04:41:28;;;;;;;23.13;10.97;;;;;;;6.43;76.61;100949.75;5060796;28;20403;-64
2022/01/10 04:43:53;;;;;;;23.90;11.07;;;;;;;6.47;75.56;100951.59;5061024;28;20169;-64
2022/01/10 04:46:18;;;;;;;26.93;12.40;;;;;;;6.91;74.03;100947.72;5060786;28;20181;-65
2022/01/10 04:48:44;;;;;;;20.33;10.60;;;;;;;6.76;74.01;100954.19;5060508;28;20424;-63
2022/01/10 04:51:13;;;;;;;20.73;11.00;;;;;;;6.91;73.88;100962.38;5061186;28;20240;-64
2022/01/10 04:53:45;;;;;;;21.60;11.30;;;;;;;6.79;73.68;100968.06;5060267;28;20241;-64
2022/01/10 04:56:12;;;;;;;26.43;12.07;;;;;;;6.48;74.75;100976.66;5060422;28;20414;-64
2022/01/10 04:58:39;;;;;;;28.70;11.47;;;;;;;7.06;73.51;100977.47;5058758;28;20443;-63
2022/01/10 05:01:05;;;;;;;19.90;12.07;;;;;;;6.66;73.96;100977.22;5060673;28;20459;-64
2022/01/10 05:03:31;;;;;;;17.67;9.67;;;;;;;6.85;73.76;100989.00;5060707;28;20416;-64
2022/01/10 05:05:56;;;;;;;23.97;10.60;;;;;;;6.68;73.87;100988.50;5059738;28;20173;-65
2022/01/10 05:08:21;;;;;;;16.63;10.63;;;;;;;6.48;74.39;100990.50;5060360;28;20184;-65
2022/01/10 05:10:50;;;;;;;22.17;11.30;;;;;;;6.38;75.22;100994.50;5059847;28;20182;-64
2022/01/10 05:13:16;;;;;;;26.90;11.53;;;;;;;6.51;74.89;100995.78;5059265;28;20459;-65
2022/01/10 05:15:46;;;;;;;22.07;11.30;;;;;;;6.06;76.85;101009.03;5060143;28;20412;-65
2022/01/10 05:18:12;;;;;;;14.73;10.17;;;;;;;5.44;78.30;101024.16;5060628;28;20169;-64
2022/01/10 05:20:38;;;;;;;21.50;10.10;;;;;;;5.71;78.57;101027.72;5059995;28;20424;-64
2022/01/10 05:23:03;;;;;;;17.67;11.20;;;;;;;6.03;77.47;101027.91;5059684;28;20907;-64
2022/01/10 05:25:28;;;;;;;14.63;10.80;;;;;;;6.58;75.98;101033.97;5060581;28;20161;-65
2022/01/10 05:27:54;;;;;;;15.93;10.20;;;;;;;6.34;76.01;101038.41;5060774;28;20181;-64
2022/01/10 05:30:19;;;;;;;14.93;9.40;;;;;;;5.68;77.67;101053.47;5061266;28;20176;-64
2022/01/10 05:32:44;;;;;;;15.50;9.43;;;;;;;5.99;76.63;101054.53;5061181;28;20161;-65
2022/01/10 05:35:10;;;;;;;13.67;9.20;;;;;;;5.74;77.59;101057.97;5059969;28;20477;-64
2022/01/10 05:37:35;;;;;;;12.90;8.80;;;;;;;5.47;78.00;101063.06;5060164;28;20169;-64
2022/01/10 05:40:00;;;;;;;11.83;8.70;;;;;;;5.61;76.67;101071.31;5061927;28;20174;-65
2022/01/10 05:42:26;;;;;;;11.40;8.60;;;;;;;4.68;80.02;101083.38;5059566;28;20188;-64
2022/01/10 05:44:51;;;;;;;9.63;7.67;;;;;;;4.61;79.86;101089.16;5060681;28;20219;-64
2022/01/10 05:47:16;;;;;;;9.33;8.27;;;;;;;5.69;77.16;101082.81;5061359;28;20165;-64
2022/01/10 05:49:47;;;;;;;10.23;8.20;;;;;;;6.00;75.95;101089.06;5060437;28;20185;-65
2022/01/10 05:52:12;;;;;;;9.90;8.40;;;;;;;5.90;74.52;101093.03;5061684;28;20181;-64
2022/01/10 05:54:38;;;;;;;9.20;8.20;;;;;;;6.53;73.75;101095.13;5059304;28;20544;-64
2022/01/10 05:57:04;;;;;;;9.97;8.97;;;;;;;6.29;73.92;101115.94;5059268;28;20173;-64
2022/01/10 05:59:31;;;;;;;9.83;8.40;;;;;;;6.22;73.39;101113.97;5059796;28;20174;-64
2022/01/10 06:01:56;;;;;;;9.30;7.80;;;;;;;6.10;74.54;101129.09;5059145;28;20177;-64
2022/01/10 06:04:22;;;;;;;9.07;8.20;;;;;;;6.30;73.42;101125.44;5058998;28;20470;-64
2022/01/10 06:06:47;;;;;;;8.77;7.90;;;;;;;6.13;74.23;101139.53;5059673;28;20177;-64
2022/01/10 06:09:12;;;;;;;9.43;8.10;;;;;;;6.40;72.64;101143.06;5058953;28;20178;-64
2022/01/10 06:11:40;;;;;;;8.70;7.80;;;;;;;5.98;73.45;101150.25;5058672;28;20264;-64
2022/01/10 06:14:05;;;;;;;9.63;8.73;;;;;;;6.32;74.03;101149.69;5059336;28;20276;-64
2022/01/10 06:16:30;;;;;;;9.60;8.60;;;;;;;6.34;73.06;101153.19;5058708;28;20507;-64
2022/01/10 06:18:56;;;;;;;10.73;9.63;;;;;;;6.09;73.88;101158.38;5058710;28;20244;-64
2022/01/10 06:21:21;;;;;;;11.33;10.23;;;;;;;6.48;72.65;101161.47;5059029;28;20169;-64
2022/01/10 06:23:46;;;;;;;10.50;9.50;;;;;;;6.03;73.58;101166.81;5058720;28;20486;-62
2022/01/10 06:26:12;;;;;;;10.73;9.63;;;;;;;6.36;73.35;101168.78;5059032;28;20475;-65
2022/01/10 06:28:37;;;;;;;11.77;10.57;;;;;;;6.15;73.32;101179.31;5059161;28;20162;-65
2022/01/10 06:31:02;;;;;;;10.80;9.80;;;;;;;6.36;72.36;101184.31;5058732;28;20224;-65
2022/01/10 06:33:27;;;;;;;11.77;10.57;;;;;;;5.98;72.51;101189.06;5058330;28;20182;-65
2022/01/10 06:35:53;;;;;;;10.90;9.80;;;;;;;6.01;72.42;101191.78;5059150;28;20161;-64
2022/01/10 06:38:18;;;;;;;12.10;10.90;;;;;;;6.46;71.56;101193.31;5058630;28;20431;-64
2022/01/10 06:40:43;;;;;;;13.40;12.00;;;;;;;6.68;70.72;101198.34;5058776;28;20535;-64
2022/01/10 06:43:09;;;;;;;11.13;10.03;;;;;;;6.73;70.30;101201.97;5058849;28;20166;-65
2022/01/10 06:45:34;;;;;;;12.70;11.40;;;;;;;6.37;70.97;101215.47;5058474;28;20228;-64
2022/01/10 06:47:59;;;;;;;12.73;10.63;;;;;;;6.19;71.75;101222.59;5058322;28;20182;-65
2022/01/10 06:50:25;;;;;;;12.33;10.53;;;;;;;6.29;72.08;101229.88;5058752;28;20169;-64
2022/01/10 06:52:53;;;;;;;12.13;10.83;;;;;;;6.06;71.98;101242.88;5058263;28;20184;-64
2022/01/10 06:55:19;;;;;;;13.20;11.90;;;;;;;6.35;71.90;101248.19;5058202;28;20222;-63
2022/01/10 06:57:44;;;;;;;12.03;10.73;;;;;;;6.28;71.95;101248.81;5058773;28;20657;-63
2022/01/10 07:00:10;;;;;;;13.70;11.70;;;;;;;6.56;70.52;101254.94;5058218;28;20173;-64
2022/01/10 07:02:35;;;;;;;14.17;12.60;;;;;;;6.18;70.96;101262.25;5057949;28;20200;-63
2022/01/10 07:05:01;;;;;;;17.27;14.07;;;;;;;6.07;72.56;101265.34;5058607;28;20479;-64
2022/01/10 07:07:26;;;;;;;16.00;13.63;;;;;;;6.10;72.30;101277.50;5058118;28;20592;-64
2022/01/10 07:09:51;;;;;;;26.43;19.00;;;;;;;6.11;72.44;101281.84;5058006;28;20608;-63
2022/01/10 07:12:17;;;;;;;13.60;12.13;;;;;;;6.30;71.85;101283.41;5058414;28;20197;-65
2022/01/10 07:14:42;;;;;;;18.30;14.53;;;;;;;5.75;73.40;101292.59;5058130;28;20254;-64
2022/01/10 07:17:07;;;;;;;27.23;19.97;;;;;;;6.00;73.37;101299.56;5058148;28;20197;-63
2022/01/10 07:19:33;;;;;;;40.90;27.97;;;;;;;5.80;75.21;101305.69;5058286;28;20173;-65
2022/01/10 07:21:58;;;;;;;15.50;13.90;;;;;;;6.00;73.07;101316.81;5060769;28;20170;-64
2022/01/10 07:24:23;;;;;;;15.17;12.90;;;;;;;5.90;73.68;101328.50;5064581;28;20196;-65
2022/01/10 07:26:48;;;;;;;20.80;17.07;;;;;;;6.43;72.77;101330.44;5064930;28;20207;-64
2022/01/10 07:29:14;;;;;;;16.90;13.87;;;;;;;6.36;72.87;101335.44;5066282;28;20177;-64
2022/01/10 07:31:40;;;;;;;15.83;13.00;;;;;;;6.18;72.98;101345.09;5068917;28;20183;-65
2022/01/10 07:34:07;;;;;;;14.57;13.07;;;;;;;6.20;73.34;101353.81;5068540;28;20197;-64
2022/01/10 07:36:32;;;;;;;16.00;14.30;;;;;;;6.33;72.11;101360.31;5067222;28;20405;-65
2022/01/10 07:38:57;;;;;;;16.07;13.10;;;;;;;6.53;71.95;101363.63;5065362;28;20423;-64
2022/01/10 07:41:23;;;;;;;15.33;13.73;;;;;;;6.28;72.78;101367.94;5065461;28;20188;-63
2022/01/10 07:43:48;;;;;;;16.43;14.20;;;;;;;6.33;71.78;101370.69;5064006;28;20166;-64
2022/01/10 07:46:14;;;;;;;17.63;15.10;;;;;;;5.72;72.36;101378.72;5064834;28;20173;-63
2022/01/10 07:48:41;;;;;;;18.20;15.57;;;;;;;5.39;74.87;101393.75;5065264;28;20180;-64
2022/01/10 07:51:09;;;;;;;18.50;15.63;;;;;;;6.07;72.30;101399.06;5064552;28;20169;-64
2022/01/10 07:53:38;;;;;;;17.77;15.00;;;;;;;6.54;71.53;101392.19;5064271;28;20459;-63
2022/01/10 07:56:05;;;;;;;19.10;15.67;;;;;;;6.00;73.25;101405.69;5064943;28;20427;-64
2022/01/10 07:58:31;;;;;;;23.37;16.50;;;;;;;6.34;71.77;101404.38;5064624;28;20434;-65
2022/01/10 08:00:56;;;;;;;17.33;14.90;;;;;;;6.53;70.74;101410.28;5064236;28;20790;-64
2022/01/10 08:03:22;;;;;;;21.10;17.40;;;;;;;6.70;69.66;101416.94;5064549;28;20407;-64
2022/01/10 08:05:47;;;;;;;22.67;17.80;;;;;;;5.65;72.78;101424.97;5064586;28;20178;-64
2022/01/10 08:08:12;;;;;;;19.70;16.10;;;;;;;5.68;74.64;101431.16;5064509;28;20259;-65
2022/01/10 08:10:38;;;;;;;21.50;17.43;;;;;;;6.27;72.47;101438.66;5064658;28;20495;-65
2022/01/10 08:13:03;;;;;;;18.87;16.70;;;;;;;6.68;70.58;101434.13;5064128;28;20274;-65
2022/01/10 08:15:30;;;;;;;19.53;15.60;;;;;;;6.47;70.44;101443.69;5063988;28;20228;-65
2022/01/10 08:17:55;;;;;;;19.37;16.37;;;;;;;6.61;70.68;101447.69;5063864;28;20192;-65
2022/01/10 08:20:20;;;;;;;18.60;16.30;;;;;;;6.29;71.10;101459.44;5064295;28;20391;-64
2022/01/10 08:22:46;;;;;;;20.00;16.73;;;;;;;6.24;71.49;101459.25;5064132;28;20181;-63
2022/01/10 08:25:11;;;;;;;21.17;17.60;;;;;;;6.38;71.37;101464.97;5064758;28;20157;-64
2022/01/10 08:27:36;;;;;;;19.97;16.40;;;;;;;6.01;72.02;101468.72;5064085;28;20182;-64
2022/01/10 08:30:05;;;;;;;19.80;16.50;;;;;;;5.98;72.94;101479.81;5064309;28;20189;-64
2022/01/10 08:32:32;;;;;;;22.00;16.50;;;;;;;6.66;70.74;101473.81;5064199;28;20176;-63
2022/01/10 08:34:58;;;;;;;20.87;16.70;;;;;;;6.26;71.43;101487.81;5060618;28;20438;-63
2022/01/10 08:37:24;;;;;;;19.60;16.23;;;;;;;6.74;70.60;101495.69;5060867;28;20431;-65
2022/01/10 08:39:51;;;;;;;21.30;17.27;;;;;;;6.41;71.38;101498.75;5061162;28;20161;-65
2022/01/10 08:42:17;;;;;;;20.33;16.80;;;;;;;5.29;74.68;101503.66;5060701;28;20416;-63
2022/01/10 08:44:43;;;;;;;19.30;16.07;;;;;;;5.15;77.41;101512.50;5060603;28;20424;-64
2022/01/10 08:47:08;;;;;;;19.90;16.83;;;;;;;5.25;77.08;101509.50;5061155;28;20414;-64
2022/01/10 08:49:33;;;;;;;22.83;19.37;;;;;;;6.06;74.39;101512.06;5060748;28;20259;-64
2022/01/10 08:51:59;;;;;;;21.20;16.40;;;;;;;6.38;72.67;101509.88;5060755;28;20201;-65
2022/01/10 08:54:24;;;;;;;21.50;18.80;;;;;;;6.33;73.33;101515.69;5060258;28;20239;-64
2022/01/10 08:56:51;;;;;;;21.27;16.63;;;;;;;4.98;77.07;101528.13;5060510;28;20185;-64
2022/01/10 08:59:16;;;;;;;24.23;19.07;;;;;;;5.05;77.41;101531.88;5060840;28;20439;-64
2022/01/10 09:01:42;;;;;;;26.43;18.17;;;;;;;5.59;75.33;101539.41;5060418;28;20416;-64
2022/01/10 09:04:15;;;;;;;22.20;17.60;;;;;;;6.08;74.06;101540.59;5059590;28;20598;-64
2022/01/10 09:06:41;;;;;;;24.57;17.70;;;;;;;6.42;72.42;101541.09;5060135;28;20886;-64
2022/01/10 09:09:07;;;;;;;25.50;17.40;;;;;;;6.17;72.77;101550.44;5060363;28;20420;-64
2022/01/10 09:11:32;;;;;;;27.23;19.13;;;;;;;6.38;72.17;101556.47;5060227;28;20450;-64
2022/01/10 09:13:57;;;;;;;22.10;16.70;;;;;;;4.90;76.56;101568.25;5060365;28;20208;-65
2022/01/10 09:16:23;;;;;;;21.20;18.00;;;;;;;5.65;76.19;101564.66;5059517;28;20483;-64
2022/01/10 09:18:48;;;;;;;20.40;16.40;;;;;;;5.55;75.78;101573.72;5060103;28;20492;-64
2022/01/10 09:21:13;;;;;;;23.40;19.37;;;;;;;5.33;76.09;101571.88;5060597;28;20528;-63
2022/01/10 09:23:38;;;;;;;23.57;17.63;;;;;;;5.61;75.50;101571.38;5059975;28;20166;-64
2022/01/10 09:26:04;;;;;;;21.87;17.70;;;;;;;5.83;75.48;101577.47;5060156;28;20531;-64
2022/01/10 09:28:29;;;;;;;25.57;19.30;;;;;;;5.80;74.80;101577.34;5059686;28;20245;-65
2022/01/10 09:30:54;;;;;;;22.30;17.23;;;;;;;6.40;73.57;101572.97;5060064;28;20497;-65
2022/01/10 09:33:20;;;;;;;21.57;17.43;;;;;;;6.67;72.24;101581.78;5059943;28;20177;-63
2022/01/10 09:35:46;;;;;;;23.20;18.50;;;;;;;5.95;73.81;101590.94;5061146;28;20169;-63
2022/01/10 09:38:11;;;;;;;23.60;16.97;;;;;;;5.87;74.29;101592.31;5059945;28;20424;-62
2022/01/10 09:40:36;;;;;;;22.60;17.00;;;;;;;5.32;76.39;101599.44;5059838;28;20202;-62
2022/01/10 09:43:02;;;;;;;30.90;24.43;;;;;;;6.61;72.88;101599.69;5059331;28;20166;-62
2022/01/10 09:45:28;;;;;;;23.80;18.13;;;;;;;6.60;71.04;101609.16;5059054;28;20173;-63
2022/01/10 09:47:53;;;;;;;21.27;17.07;;;;;;;7.05;70.00;101611.78;5059546;28;20412;-63
2022/01/10 09:50:19;;;;;;;29.60;19.40;;;;;;;7.21;68.95;101622.72;5059183;28;20196;-62
2022/01/10 09:52:47;;;;;;;19.80;10.40;;;;;;;13.01;65.55;101591.47;5059281;28;20174;-60
2022/01/10 09:55:13;;;;;;;23.30;18.50;;;;;;;9.50;60.50;101612.91;5063693;28;20261;-65
2022/01/10 09:57:38;;;;;;;21.20;16.20;;;;;;;8.45;63.88;101622.75;5076344;28;20414;-65
2022/01/10 10:00:05;;;;;;;23.90;18.93;;;;;;;7.56;66.89;101626.63;5059193;28;20243;-65
2022/01/10 10:02:32;;;;;;;31.40;23.47;;;;;;;7.58;66.89;101631.88;5067035;28;20189;-65
2022/01/10 10:04:57;;;;;;;22.97;17.47;;;;;;;7.81;66.32;101637.00;5079521;28;20529;-65
2022/01/10 10:07:24;;;;;;;31.97;22.43;;;;;;;7.50;67.96;101652.34;5079105;28;20736;-64
2022/01/10 10:09:49;;;;;;;24.93;18.20;;;;;;;7.93;66.44;101651.28;5078980;28;20193;-65
2022/01/10 10:12:14;;;;;;;32.80;24.47;;;;;;;7.78;66.94;101649.88;5061118;28;20442;-65
2022/01/10 10:14:41;;;;;;;29.00;21.10;;;;;;;7.56;68.04;101662.06;5058091;28;20209;-64
2022/01/10 10:17:13;;;;;;;24.50;19.33;;;;;;;7.21;69.56;101672.00;5059055;28;20173;-65
2022/01/10 10:19:38;;;;;;;23.97;19.47;;;;;;;7.11;69.74;101669.88;5059213;28;20802;-65
2022/01/10 10:22:03;;;;;;;29.47;21.20;;;;;;;7.13;70.04;101670.81;5058777;28;20435;-65
2022/01/10 10:24:29;;;;;;;28.80;22.70;;;;;;;7.55;68.34;101673.25;5058567;28;20227;-65
2022/01/10 10:26:56;;;;;;;26.90;20.57;;;;;;;7.00;70.61;101691.09;5059286;28;20248;-65
2022/01/10 10:29:21;;;;;;;27.00;20.03;;;;;;;7.28;69.20;101689.56;5077230;28;20187;-67
2022/01/10 10:31:52;;;;;;;21.80;18.47;;;;;;;7.42;68.44;101690.97;5078690;28;20419;-67
2022/01/10 10:34:29;;;;;;;26.90;20.07;;;;;;;7.38;68.52;101701.19;5078898;28;20203;-66
2022/01/10 10:36:59;;;;;;;26.73;20.03;;;;;;;7.27;68.48;101705.97;5085483;28;20490;-66
2022/01/10 10:39:25;;;;;;;29.10;20.50;;;;;;;7.28;69.30;101710.31;5086398;28;20389;-67
2022/01/10 10:41:55;;;;;;;32.03;22.33;;;;;;;7.50;68.78;101716.34;5084415;28;20423;-67
2022/01/10 10:44:21;;;;;;;30.77;21.80;;;;;;;7.19;69.90;101716.03;5081914;28;20419;-67
2022/01/10 10:46:47;;;;;;;26.53;19.90;;;;;;;7.02;70.56;101717.97;5079350;28;20812;-65
2022/01/10 10:49:14;;;;;;;31.97;21.80;;;;;;;6.99;70.86;101724.72;5077875;28;20181;-66
2022/01/10 10:51:39;;;;;;;31.53;22.00;;;;;;;7.02;70.50;101727.44;5078446;28;20417;-66
2022/01/10 10:54:06;;;;;;;40.80;29.30;;;;;;;7.33;70.41;101720.88;5078191;28;20453;-65
2022/01/10 10:56:39;;;;;;;30.80;21.50;;;;;;;7.38;69.66;101727.13;5077820;28;20222;-67
2022/01/10 10:59:07;;;;;;;30.00;21.57;;;;;;;6.89;70.88;101726.06;5078751;28;20473;-65
2022/01/10 11:01:33;;;;;;;29.23;21.47;;;;;;;7.39;69.36;101739.28;5075770;28;20386;-65
2022/01/10 11:03:58;;;;;;;33.60;24.57;;;;;;;7.56;69.01;101738.22;5058122;28;20760;-65
2022/01/10 11:06:26;;;;;;;29.97;22.93;;;;;;;7.46;68.33;101745.59;5058429;28;20401;-65
2022/01/10 11:08:52;;;;;;;30.10;21.80;;;;;;;7.44;69.21;101747.22;5058319;28;20174;-65
2022/01/10 11:11:22;;;;;;;31.73;24.03;;;;;;;7.72;68.19;101739.66;5058128;28;20440;-67
2022/01/10 11:13:49;;;;;;;29.30;22.23;;;;;;;7.66;69.65;101756.69;5057552;28;20204;-65
2022/01/10 11:16:15;;;;;;;27.20;20.53;;;;;;;7.50;68.51;101757.84;5057384;28;20420;-65
2022/01/10 11:18:40;;;;;;;25.37;19.40;;;;;;;7.21;69.26;101762.75;5040524;28;20515;-65
2022/01/10 11:21:06;;;;;;;24.47;18.40;;;;;;;7.19;69.86;101761.84;5058485;28;20258;-65
2022/01/10 11:23:36;;;;;;;24.80;19.10;;;;;;;6.87;69.96;101757.13;5057817;28;20173;-66
2022/01/10 11:26:05;;;;;;;32.00;24.70;;;;;;;7.51;68.61;101750.13;5057204;28;20173;-66